createdAt,value
2019-04-23T00:00:10.270Z,101192.79
2019-04-23T00:05:48.051Z,101173.64
2019-04-23T00:08:39.729Z,101159.83
2019-04-23T00:14:15.105Z,101163.12
2019-04-23T00:17:04.503Z,101177.04
2019-04-23T00:19:45.102Z,101160.38
2019-04-23T00:28:45.557Z,101151.64
2019-04-23T00:31:34.991Z,101153.98
2019-04-23T00:34:30.804Z,101150.82
2019-04-23T00:37:09.866Z,101148.19
2019-04-23T00:39:51.177Z,101152.28
2019-04-23T00:42:40.618Z,101148.13
2019-04-23T00:45:16.779Z,101168.30
2019-04-23T00:48:02.224Z,101146.05
2019-04-23T00:50:52.826Z,101165.34
2019-04-23T00:53:32.871Z,101137.63
2019-04-23T00:59:08.868Z,101143.05
2019-04-23T01:01:55.773Z,101134.08
2019-04-23T01:04:41.783Z,101158.19
2019-04-23T01:07:24.656Z,101155.91
2019-04-23T01:13:14.441Z,101126.50
2019-04-23T01:16:00.758Z,101129.53
2019-04-23T01:19:24.829Z,101136.41
2019-04-23T01:21:32.691Z,101132.37
2019-04-23T01:33:43.549Z,101110.41
2019-04-23T01:36:34.691Z,101136.30
2019-04-23T01:39:06.223Z,101134.14
2019-04-23T01:41:57.991Z,101109.34
2019-04-23T01:44:42.746Z,101108.22
2019-04-23T01:47:28.068Z,101113.77
2019-04-23T01:50:14.350Z,101128.67
2019-04-23T01:52:59.271Z,101096.62
2019-04-23T01:56:01.278Z,101117.97
2019-04-23T02:01:17.555Z,101095.31
2019-04-23T02:04:03.549Z,101092.92
2019-04-23T02:06:44.954Z,101089.86
2019-04-23T02:12:27.735Z,101080.77
2019-04-23T02:15:12.123Z,101106.58
2019-04-23T02:17:58.622Z,101082.41
2019-04-23T02:20:43.030Z,101102.78
2019-04-23T02:26:43.543Z,101079.75
2019-04-23T02:29:32.653Z,101078.34
2019-04-23T02:32:09.422Z,101072.23
2019-04-23T02:37:54.143Z,101066.33
2019-04-23T02:40:37.992Z,101066.25
2019-04-23T02:43:16.336Z,101071.98
2019-04-23T02:54:38.067Z,101091.08
2019-04-23T02:57:13.414Z,101088.39
2019-04-23T03:08:02.218Z,101066.79
2019-04-23T03:10:59.656Z,101078.86
2019-04-23T03:13:48.270Z,101064.17
2019-04-23T03:19:45.813Z,101057.22
2019-04-23T03:28:55.723Z,101074.34
2019-04-23T03:40:06.081Z,101046.20
2019-04-23T03:42:42.360Z,101046.86
2019-04-23T03:51:03.202Z,101048.45
2019-04-23T03:57:00.270Z,101040.30
2019-04-23T04:04:53.533Z,101032.44
2019-04-23T04:08:02.563Z,101056.39
2019-04-23T04:10:40.984Z,101056.77
2019-04-23T04:13:22.802Z,101037.75
2019-04-23T04:16:04.944Z,101033.55
2019-04-23T04:19:09.019Z,101034.38
2019-04-23T04:21:33.784Z,101059.19
2019-04-23T04:27:08.037Z,101054.76
2019-04-23T04:35:24.780Z,101042.83
2019-04-23T04:38:24.936Z,101018.94
2019-04-23T04:41:04.302Z,101028.56
2019-04-23T04:43:50.869Z,101019.05
2019-04-23T04:46:43.842Z,101029.64
2019-04-23T04:54:44.498Z,101022.14
2019-04-23T05:00:32.908Z,101042.20
2019-04-23T05:08:38.319Z,101026.70
2019-04-23T05:11:28.823Z,101030.42
2019-04-23T05:14:08.478Z,101036.42
2019-04-23T05:16:54.734Z,101031.73
2019-04-23T05:19:51.328Z,101008.87
2019-04-23T05:22:20.885Z,101031.79
2019-04-23T05:25:09.141Z,101014.63
2019-04-23T05:28:02.766Z,101029.54
2019-04-23T05:30:46.389Z,100999.22
2019-04-23T05:33:29.785Z,101012.20
2019-04-23T05:36:22.843Z,101010.45
2019-04-23T05:41:43.673Z,101001.62
2019-04-23T05:44:38.260Z,101003.45
2019-04-23T05:47:25.585Z,101002.13
2019-04-23T05:50:02.149Z,100999.06
2019-04-23T05:53:07.840Z,101021.51
2019-04-23T05:55:38.861Z,101012.17
2019-04-23T05:58:22.145Z,100988.16
2019-04-23T06:01:42.351Z,100998.86
2019-04-23T06:07:08.394Z,101003.12
2019-04-23T06:09:48.010Z,100986.47
2019-04-23T06:12:31.409Z,101012.75
2019-04-23T06:15:31.489Z,100991.28
2019-04-23T06:18:26.671Z,101006.72
2019-04-23T06:29:57.058Z,100987.23
2019-04-23T06:32:42.857Z,101007.75
2019-04-23T06:35:34.040Z,100998.89
2019-04-23T06:41:11.728Z,100998.72
2019-04-23T06:55:06.820Z,100994.42
2019-04-23T06:58:10.554Z,100961.59
2019-04-23T07:00:48.261Z,100976.69
2019-04-23T07:03:38.862Z,100960.73
2019-04-23T07:06:23.591Z,100967.91
2019-04-23T07:11:51.380Z,100978.52
2019-04-23T07:14:44.000Z,100953.20
2019-04-23T07:17:21.174Z,100952.34
2019-04-23T07:20:08.333Z,100955.11
2019-04-23T07:22:43.151Z,100952.69
2019-04-23T07:25:42.523Z,100934.95
2019-04-23T07:28:26.151Z,100961.70
2019-04-23T07:31:29.648Z,100939.02
2019-04-23T07:34:01.182Z,100955.25
2019-04-23T07:36:40.608Z,100929.22
2019-04-23T07:40:10.978Z,100916.02
2019-04-23T07:46:34.538Z,100924.14
2019-04-23T07:49:20.229Z,100908.91
2019-04-23T07:52:03.071Z,100898.14
2019-04-23T07:57:49.368Z,100915.29
2019-04-23T08:00:26.392Z,100908.42
2019-04-23T08:02:57.794Z,100892.42
2019-04-23T08:05:44.098Z,100892.69
2019-04-23T08:08:33.313Z,100899.06
2019-04-23T08:16:37.043Z,100867.08
2019-04-23T08:19:34.950Z,100898.81
2019-04-23T08:25:19.339Z,100862.52
2019-04-23T08:28:13.566Z,100872.91
2019-04-23T08:30:59.050Z,100870.66
2019-04-23T08:33:57.344Z,100860.36
2019-04-23T08:39:30.477Z,100859.08
2019-04-23T08:42:28.687Z,100837.72
2019-04-23T08:51:35.182Z,100822.74
2019-04-23T08:54:08.817Z,100816.09
2019-04-23T08:56:49.998Z,100818.54
2019-04-23T08:59:38.905Z,100811.09
2019-04-23T09:05:08.803Z,100802.45
2019-04-23T09:10:46.203Z,100800.66
2019-04-23T09:16:25.433Z,100796.69
2019-04-23T09:19:14.635Z,100791.53
2019-04-23T09:25:18.532Z,100801.54
2019-04-23T09:27:53.281Z,100800.56
2019-04-23T09:30:42.799Z,100801.77
2019-04-23T09:37:00.289Z,100768.47
2019-04-23T09:39:52.865Z,100780.23
2019-04-23T09:45:48.632Z,100746.09
2019-04-23T09:48:50.904Z,100758.11
2019-04-23T09:51:38.633Z,100767.53
2019-04-23T09:54:26.623Z,100756.88
2019-04-23T09:57:17.122Z,100745.04
2019-04-23T10:00:13.117Z,100761.56
2019-04-23T10:02:41.124Z,100752.61
2019-04-23T10:05:26.242Z,100722.39
2019-04-23T10:08:05.135Z,100729.87
2019-04-23T10:10:43.165Z,100708.70
2019-04-23T10:13:27.726Z,100721.28
2019-04-23T10:16:15.648Z,100689.86
2019-04-23T10:19:00.656Z,100709.48
2019-04-23T10:21:53.259Z,100697.13
2019-04-23T10:24:28.162Z,100710.06
2019-04-23T10:27:12.660Z,100680.94
2019-04-23T10:29:57.051Z,100677.30
2019-04-23T10:32:29.822Z,100693.31
2019-04-23T10:35:22.249Z,100700.83
2019-04-23T10:38:08.172Z,100690.34
2019-04-23T10:41:06.585Z,100688.52
2019-04-23T10:43:56.792Z,100669.48
2019-04-23T10:47:40.325Z,100662.47
2019-04-23T10:50:51.260Z,100666.02
2019-04-23T10:54:03.110Z,100641.35
2019-04-23T10:56:40.052Z,100638.56
2019-04-23T10:59:06.531Z,100657.80
2019-04-23T11:02:22.261Z,100649.20
2019-04-23T11:13:21.013Z,100626.74
2019-04-23T11:16:40.062Z,100611.20
2019-04-23T11:21:48.020Z,100596.44
2019-04-23T11:24:37.985Z,100595.23
2019-04-23T11:27:24.479Z,100616.20
2019-04-23T11:30:10.582Z,100617.04
2019-04-23T11:32:53.762Z,100605.41
2019-04-23T11:35:50.617Z,100607.63
2019-04-23T11:38:48.646Z,100604.03
2019-04-23T11:41:09.143Z,100595.11
2019-04-23T11:44:17.306Z,100590.66
2019-04-23T11:46:53.483Z,100609.59
2019-04-23T11:52:41.668Z,100605.78
2019-04-23T12:01:52.201Z,100564.89
2019-04-23T12:04:48.510Z,100563.45
2019-04-23T12:07:41.244Z,100580.81
2019-04-23T12:17:15.377Z,100544.12
2019-04-23T12:20:08.067Z,100548.95
2019-04-23T12:22:54.458Z,100546.05
2019-04-23T12:25:36.591Z,100541.64
2019-04-23T12:28:27.714Z,100540.63
2019-04-23T12:31:29.356Z,100535.27
2019-04-23T12:33:52.282Z,100554.34
2019-04-23T12:39:54.618Z,100526.89
2019-04-23T12:42:44.424Z,100540.52
2019-04-23T12:45:07.018Z,100538.14
2019-04-23T12:47:43.687Z,100528.09
2019-04-23T12:50:30.363Z,100532.19
2019-04-23T12:52:45.177Z,100517.02
2019-04-23T12:58:11.476Z,100491.56
2019-04-23T13:00:45.802Z,100475.78
2019-04-23T13:03:41.429Z,100497.34
2019-04-23T13:06:24.865Z,100500.73
2019-04-23T13:09:21.751Z,100478.05
2019-04-23T13:11:57.808Z,100500.45
2019-04-23T13:14:49.560Z,100466.58
2019-04-23T13:17:38.050Z,100481.73
2019-04-23T13:20:19.494Z,100460.36
2019-04-23T13:23:01.732Z,100455.64
2019-04-23T13:26:17.534Z,100434.55
2019-04-23T13:29:13.854Z,100427.66
2019-04-23T13:31:51.841Z,100455.84
2019-04-23T13:34:37.113Z,100441.40
2019-04-23T13:37:33.136Z,100420.42
2019-04-23T13:40:10.919Z,100443.09
2019-04-23T13:48:21.455Z,100450.05
2019-04-23T13:53:59.059Z,100425.05
2019-04-23T13:57:16.157Z,100428.56
2019-04-23T13:59:38.944Z,100409.60
2019-04-23T14:05:26.861Z,100413.59
2019-04-23T14:08:13.252Z,100388.89
2019-04-23T14:10:55.858Z,100407.23
2019-04-23T14:13:55.597Z,100416.00
2019-04-23T14:19:06.761Z,100408.77
2019-04-23T14:22:18.467Z,100384.26
2019-04-23T14:24:53.134Z,100385.70
2019-04-23T14:27:37.143Z,100402.87
2019-04-23T14:30:21.813Z,100401.58
2019-04-23T14:33:02.775Z,100361.47
2019-04-23T14:35:45.242Z,100380.13
2019-04-23T14:41:23.468Z,100352.59
2019-04-23T14:47:40.568Z,100377.24
2019-04-23T14:50:29.399Z,100367.77
2019-04-23T14:55:50.934Z,100376.27
2019-04-23T15:01:27.307Z,100355.98
2019-04-23T15:04:24.284Z,100357.36
2019-04-23T15:07:00.714Z,100348.30
2019-04-23T15:12:30.188Z,100359.65
2019-04-23T15:17:58.137Z,100333.34
2019-04-23T15:21:05.233Z,100345.81
2019-04-23T15:28:50.983Z,100341.69
2019-04-23T15:31:59.220Z,100332.42
2019-04-23T15:34:41.337Z,100317.66
2019-04-23T15:37:48.901Z,100332.91
2019-04-23T15:40:08.075Z,100324.06
2019-04-23T15:43:05.822Z,100323.16
2019-04-23T15:45:48.978Z,100317.18
2019-04-23T15:48:31.964Z,100313.28
2019-04-23T15:51:19.881Z,100330.42
2019-04-23T15:54:04.831Z,100320.55
2019-04-23T15:56:50.039Z,100307.78
2019-04-23T16:01:50.643Z,100327.17
2019-04-23T16:04:35.717Z,100314.20
2019-04-23T16:07:37.226Z,100304.61
2019-04-23T16:10:38.075Z,100329.70
2019-04-23T16:13:14.881Z,100333.00
2019-04-23T16:15:57.984Z,100327.70
2019-04-23T16:24:36.941Z,100328.64
2019-04-23T16:27:21.526Z,100311.72
2019-04-23T16:30:13.842Z,100321.84
2019-04-23T16:33:13.075Z,100313.17
2019-04-23T16:36:18.389Z,100316.27
2019-04-23T16:39:07.507Z,100327.75
2019-04-23T16:41:42.278Z,100328.29
2019-04-23T16:44:44.631Z,100323.56
2019-04-23T16:53:03.961Z,100329.98
2019-04-23T16:58:45.845Z,100312.94
2019-04-23T17:04:00.716Z,100301.94
2019-04-23T17:06:48.440Z,100307.05
2019-04-23T17:09:37.070Z,100302.39
2019-04-23T17:12:38.813Z,100298.20
2019-04-23T17:15:07.571Z,100313.98
2019-04-23T17:17:56.193Z,100298.06
2019-04-23T17:24:07.933Z,100325.97
2019-04-23T17:29:10.947Z,100303.05
2019-04-23T17:31:38.137Z,100305.69
2019-04-23T17:37:30.697Z,100327.77
2019-04-23T17:43:01.614Z,100318.13
2019-04-23T17:46:07.883Z,100328.83
2019-04-23T17:48:56.556Z,100336.72
2019-04-23T17:51:31.195Z,100321.85
2019-04-23T17:54:24.740Z,100321.77
2019-04-23T18:00:16.073Z,100334.63
2019-04-23T18:05:54.420Z,100328.30
2019-04-23T18:08:32.926Z,100322.13
2019-04-23T18:11:17.897Z,100343.39
2019-04-23T18:14:02.592Z,100344.74
2019-04-23T18:17:06.348Z,100339.11
2019-04-23T18:19:29.855Z,100325.05
2019-04-23T18:22:35.562Z,100327.84
2019-04-23T18:28:25.983Z,100356.97
2019-04-23T18:37:09.275Z,100341.78
2019-04-23T18:42:41.078Z,100360.73
2019-04-23T18:48:32.933Z,100341.39
2019-04-23T18:51:40.491Z,100335.95
2019-04-23T18:53:56.348Z,100334.56
2019-04-23T18:57:09.335Z,100334.34
2019-04-23T19:12:36.335Z,100377.30
2019-04-23T19:23:25.743Z,100377.30
2019-04-23T19:26:15.438Z,100359.95
2019-04-23T19:28:55.770Z,100356.87
2019-04-23T19:31:56.947Z,100363.85
2019-04-23T19:34:55.927Z,100378.19
2019-04-23T19:40:41.040Z,100378.89
2019-04-23T19:43:37.131Z,100355.94
2019-04-23T19:46:38.552Z,100352.23
2019-04-23T19:49:13.169Z,100380.22
2019-04-23T19:57:11.882Z,100377.11
2019-04-23T20:00:14.094Z,100361.83
2019-04-23T20:05:35.614Z,100353.89
2019-04-23T20:08:22.513Z,100363.67
2019-04-23T20:11:01.061Z,100377.86
2019-04-23T20:13:50.689Z,100371.49
2019-04-23T20:16:38.415Z,100347.73
2019-04-23T20:19:23.953Z,100347.73
2019-04-23T20:25:10.111Z,100351.44
2019-04-23T20:30:54.457Z,100368.70
2019-04-23T20:36:38.845Z,100367.95
2019-04-23T20:50:10.165Z,100336.84
2019-04-23T20:53:00.029Z,100352.59
2019-04-23T20:56:01.829Z,100331.36
2019-04-23T21:04:57.282Z,100325.28
2019-04-23T21:07:50.407Z,100352.54
2019-04-23T21:10:48.310Z,100346.65
2019-04-23T21:18:57.152Z,100333.36
2019-04-23T21:22:21.484Z,100343.14
2019-04-23T21:25:14.378Z,100343.73
2019-04-23T21:28:10.040Z,100339.42
2019-04-23T21:31:00.858Z,100337.51
2019-04-23T21:34:03.137Z,100320.86
2019-04-23T21:36:46.015Z,100314.56
2019-04-23T21:43:09.316Z,100331.48
2019-04-23T21:46:14.563Z,100311.41
2019-04-23T21:51:49.296Z,100303.94
2019-04-23T21:54:12.402Z,100329.53
2019-04-23T21:57:00.540Z,100329.30
2019-04-23T21:59:55.485Z,100328.37
2019-04-23T22:02:27.626Z,100323.66
2019-04-23T22:05:32.523Z,100308.47
2019-04-23T22:08:26.212Z,100305.27
2019-04-23T22:11:31.000Z,100320.92
2019-04-23T22:13:58.228Z,100327.52
2019-04-23T22:16:41.021Z,100300.35
2019-04-23T22:19:20.198Z,100318.28
2019-04-23T22:22:16.225Z,100308.78
2019-04-23T22:24:52.813Z,100291.09
2019-04-23T22:27:24.246Z,100307.89
2019-04-23T22:30:01.129Z,100308.32
2019-04-23T22:35:22.021Z,100310.53
2019-04-23T22:38:09.583Z,100309.03
2019-04-23T22:40:28.794Z,100305.49
2019-04-23T22:46:07.945Z,100304.02
2019-04-23T22:51:55.337Z,100295.33
2019-04-23T22:54:30.512Z,100270.72
2019-04-23T22:57:09.581Z,100268.64
2019-04-23T23:00:14.363Z,100291.52
2019-04-23T23:03:11.581Z,100268.98
2019-04-23T23:06:12.788Z,100289.16
2019-04-23T23:08:55.223Z,100283.44
2019-04-23T23:11:34.900Z,100261.64
2019-04-23T23:17:02.267Z,100280.13
2019-04-23T23:20:01.105Z,100276.41
2019-04-23T23:22:43.820Z,100254.92
2019-04-23T23:28:11.854Z,100253.09
2019-04-23T23:31:07.006Z,100252.12
2019-04-23T23:33:44.065Z,100268.72
2019-04-23T23:39:18.129Z,100250.58
2019-04-23T23:42:07.425Z,100240.75
2019-04-23T23:47:33.955Z,100246.59
2019-04-23T23:50:35.360Z,100265.91
2019-04-23T23:53:11.758Z,100249.29
2019-04-23T23:55:58.518Z,100240.86
2019-04-23T23:58:57.006Z,100240.73
